KLCK

Rickenbacker International Airport

Columbus, Ohio, USA
KLCK 182343Z 1900/1924 07003KT P6SM OVC025 FM190100 06004KT P6SM OVC015 FM191300 07012KT P6SM -FZRA OVC008 FM191500 06013KT 1/2SM SN OVC005 FM191900 04015KT 1SM -SN OVC005 FM192100 02018G28KT 1SM -FZRASN OVC005
Issued Valid From Valid To
Jan-18 @ 23:43 UTC
(2 hours ago)
Jan-19 @ 00:00 UTC
(2 hours ago)
Jan-20 @ 00:00 UTC
(in 22 hours)
Expired Click to View Jan-19 @ 00:00 to Jan-19 @ 01:00
KLCK 182343Z 1900/1924 07003KT P6SM OVC025
Wind Visibility Clouds
70° at 3 knots Greater than 6 miles
  • Overcast at 2,500' AGL
From Jan-19 @ 01:00 to Jan-19 @ 13:00
FM190100 06004KT P6SM OVC015
Wind Visibility Clouds
60° at 4 knots Greater than 6 miles
  • Overcast at 1,500' AGL
From Jan-19 @ 13:00 to Jan-19 @ 15:00
FM191300 07012KT P6SM -FZRA OVC008
Wind Visibility Clouds Conditions
70° at 12 knots Greater than 6 miles
  • Overcast at 800' AGL
  • Light Freezing
  • Light Rain
From Jan-19 @ 15:00 to Jan-19 @ 19:00
FM191500 06013KT 1/2SM SN OVC005
Wind Visibility Clouds Conditions
60° at 13 knots 1/2 miles
  • Overcast at 500' AGL
  • Snow
From Jan-19 @ 19:00 to Jan-19 @ 21:00
FM191900 04015KT 1SM -SN OVC005
Wind Visibility Clouds Conditions
40° at 15 knots 1 miles
  • Overcast at 500' AGL
  • Light Snow
From Jan-19 @ 21:00 to Jan-20 @ 00:00
FM192100 02018G28KT 1SM -FZRASN OVC005
Wind Visibility Clouds Conditions
20° at 18 knots
 Gusting to 28 knots
1 miles
  • Overcast at 500' AGL
  • Light Freezing
  • Light Rain
  • Snow
KLCK 182343Z 1900/1924 07003KT P6SM OVC025 FM190100 06004KT P6SM OVC015 FM191300 07012KT P6SM -FZRA OVC008 FM191500 06013KT 1/2SM SN OVC005 FM191900 04015KT 1SM -SN OVC005 FM192100 02018G28KT 1SM -FZRASN OVC005
Issued Jan-18 @ 23:43 UTC
(2 hours ago)
Valid From Jan-19 @ 00:00 UTC
(2 hours ago)
Valid To Jan-20 @ 00:00 UTC
(in 22 hours)
Jan-19 @ 00:00 - Jan-19 @ 01:00
Wind Visibility
70° at 3 knots Greater than 6 miles
Clouds
  • Overcast at 2,500' AGL
From Jan-19 @ 01:00 - Jan-19 @ 13:00
Wind Visibility
60° at 4 knots Greater than 6 miles
Clouds
  • Overcast at 1,500' AGL
From Jan-19 @ 13:00 - Jan-19 @ 15:00
Wind Visibility
70° at 12 knots Greater than 6 miles
Clouds
  • Overcast at 800' AGL
Conditions
  • Light Freezing
  • Light Rain
From Jan-19 @ 15:00 - Jan-19 @ 19:00
Wind Visibility
60° at 13 knots 1/2 miles
Clouds
  • Overcast at 500' AGL
Conditions
  • Snow
From Jan-19 @ 19:00 - Jan-19 @ 21:00
Wind Visibility
40° at 15 knots 1 miles
Clouds
  • Overcast at 500' AGL
Conditions
  • Light Snow
From Jan-19 @ 21:00 - Jan-20 @ 00:00
Wind Visibility
20° at 18 knots
 Gusting to 28 knots
1 miles
Clouds
  • Overcast at 500' AGL
Conditions
  • Light Freezing
  • Light Rain
  • Snow